sensor_id;sensor_type;location;lat;lon;timestamp;P1;durP1;ratioP1;P2;durP2;ratioP2
15061;SDS011;7630;50.306;8.566;2023-03-23T00:01:04;4.80;;;1.63;;
15061;SDS011;7630;50.306;8.566;2023-03-23T00:05:06;2.83;;;2.10;;
15061;SDS011;7630;50.306;8.566;2023-03-23T00:09:09;2.20;;;1.53;;
15061;SDS011;7630;50.306;8.566;2023-03-23T00:13:10;2.53;;;2.10;;
15061;SDS011;7630;50.306;8.566;2023-03-23T00:17:11;6.13;;;1.57;;
15061;SDS011;7630;50.306;8.566;2023-03-23T00:21:14;1.40;;;1.30;;
15061;SDS011;7630;50.306;8.566;2023-03-23T00:25:14;4.43;;;1.67;;
15061;SDS011;7630;50.306;8.566;2023-03-23T00:29:20;8.40;;;1.43;;
15061;SDS011;7630;50.306;8.566;2023-03-23T00:33:23;1.80;;;1.67;;
15061;SDS011;7630;50.306;8.566;2023-03-23T00:37:25;3.70;;;2.20;;
15061;SDS011;7630;50.306;8.566;2023-03-23T00:41:26;1.70;;;1.50;;
15061;SDS011;7630;50.306;8.566;2023-03-23T00:45:28;1.50;;;1.40;;
15061;SDS011;7630;50.306;8.566;2023-03-23T00:49:28;1.83;;;1.60;;
15061;SDS011;7630;50.306;8.566;2023-03-23T00:53:29;3.13;;;1.60;;
15061;SDS011;7630;50.306;8.566;2023-03-23T00:57:30;3.17;;;2.23;;
15061;SDS011;7630;50.306;8.566;2023-03-23T01:01:31;2.53;;;2.33;;
15061;SDS011;7630;50.306;8.566;2023-03-23T01:05:36;2.33;;;2.10;;
15061;SDS011;7630;50.306;8.566;2023-03-23T01:09:37;1.93;;;1.77;;
15061;SDS011;7630;50.306;8.566;2023-03-23T01:13:40;2.97;;;2.77;;
15061;SDS011;7630;50.306;8.566;2023-03-23T01:17:42;2.00;;;1.70;;
15061;SDS011;7630;50.306;8.566;2023-03-23T01:21:44;4.40;;;1.93;;
15061;SDS011;7630;50.306;8.566;2023-03-23T01:25:44;5.27;;;1.60;;
15061;SDS011;7630;50.306;8.566;2023-03-23T01:29:45;2.73;;;1.80;;
15061;SDS011;7630;50.306;8.566;2023-03-23T01:33:46;1.70;;;1.60;;
15061;SDS011;7630;50.306;8.566;2023-03-23T01:37:47;1.57;;;1.47;;
15061;SDS011;7630;50.306;8.566;2023-03-23T01:41:48;2.60;;;1.87;;
15061;SDS011;7630;50.306;8.566;2023-03-23T01:45:49;3.70;;;1.80;;
15061;SDS011;7630;50.306;8.566;2023-03-23T01:49:50;2.23;;;1.80;;
15061;SDS011;7630;50.306;8.566;2023-03-23T01:53:53;1.40;;;1.30;;
15061;SDS011;7630;50.306;8.566;2023-03-23T01:57:56;2.63;;;1.70;;
15061;SDS011;7630;50.306;8.566;2023-03-23T02:01:57;2.07;;;1.53;;
15061;SDS011;7630;50.306;8.566;2023-03-23T02:06:00;1.50;;;1.40;;
15061;SDS011;7630;50.306;8.566;2023-03-23T02:10:02;2.80;;;1.57;;
15061;SDS011;7630;50.306;8.566;2023-03-23T02:14:04;3.23;;;1.50;;
15061;SDS011;7630;50.306;8.566;2023-03-23T02:18:09;2.37;;;1.10;;
15061;SDS011;7630;50.306;8.566;2023-03-23T02:35:28;3.80;;;2.23;;
15061;SDS011;7630;50.306;8.566;2023-03-23T02:43:33;7.27;;;1.80;;
15061;SDS011;7630;50.306;8.566;2023-03-23T02:47:37;3.17;;;1.60;;
15061;SDS011;7630;50.306;8.566;2023-03-23T02:51:39;1.60;;;1.50;;
15061;SDS011;7630;50.306;8.566;2023-03-23T02:55:43;2.30;;;1.93;;
15061;SDS011;7630;50.306;8.566;2023-03-23T02:59:45;1.97;;;1.80;;
15061;SDS011;7630;50.306;8.566;2023-03-23T03:03:46;2.90;;;2.20;;
15061;SDS011;7630;50.306;8.566;2023-03-23T03:12:24;2.00;;;1.90;;
15061;SDS011;7630;50.306;8.566;2023-03-23T03:20:30;2.47;;;2.27;;
15061;SDS011;7630;50.306;8.566;2023-03-23T03:24:34;2.37;;;2.23;;
15061;SDS011;7630;50.306;8.566;2023-03-23T03:28:39;3.77;;;3.23;;
15061;SDS011;7630;50.306;8.566;2023-03-23T03:32:43;2.73;;;2.47;;
15061;SDS011;7630;50.306;8.566;2023-03-23T03:36:47;2.50;;;2.30;;
15061;SDS011;7630;50.306;8.566;2023-03-23T03:40:50;3.50;;;2.77;;
15061;SDS011;7630;50.306;8.566;2023-03-23T03:44:51;3.90;;;2.40;;
15061;SDS011;7630;50.306;8.566;2023-03-23T03:48:52;3.33;;;3.03;;
15061;SDS011;7630;50.306;8.566;2023-03-23T03:52:53;5.00;;;2.67;;
15061;SDS011;7630;50.306;8.566;2023-03-23T03:56:54;3.57;;;2.50;;
15061;SDS011;7630;50.306;8.566;2023-03-23T04:01:00;2.63;;;2.40;;
15061;SDS011;7630;50.306;8.566;2023-03-23T04:05:00;2.27;;;2.07;;
15061;SDS011;7630;50.306;8.566;2023-03-23T04:09:04;2.40;;;2.20;;
15061;SDS011;7630;50.306;8.566;2023-03-23T04:13:08;2.90;;;2.70;;
15061;SDS011;7630;50.306;8.566;2023-03-23T04:17:09;2.13;;;2.03;;
15061;SDS011;7630;50.306;8.566;2023-03-23T04:21:10;3.10;;;2.80;;
15061;SDS011;7630;50.306;8.566;2023-03-23T04:25:12;2.47;;;2.27;;
15061;SDS011;7630;50.306;8.566;2023-03-23T04:29:13;3.13;;;2.30;;
15061;SDS011;7630;50.306;8.566;2023-03-23T04:33:13;2.40;;;2.20;;
15061;SDS011;7630;50.306;8.566;2023-03-23T04:37:14;2.23;;;2.03;;
15061;SDS011;7630;50.306;8.566;2023-03-23T04:41:15;2.60;;;2.40;;
15061;SDS011;7630;50.306;8.566;2023-03-23T04:45:18;2.87;;;2.60;;
15061;SDS011;7630;50.306;8.566;2023-03-23T04:49:21;3.00;;;2.47;;
15061;SDS011;7630;50.306;8.566;2023-03-23T04:53:22;3.07;;;2.77;;
15061;SDS011;7630;50.306;8.566;2023-03-23T04:57:23;2.60;;;2.40;;
15061;SDS011;7630;50.306;8.566;2023-03-23T05:01:26;3.83;;;2.87;;
15061;SDS011;7630;50.306;8.566;2023-03-23T05:05:28;2.47;;;2.20;;
15061;SDS011;7630;50.306;8.566;2023-03-23T05:09:32;3.57;;;2.27;;
15061;SDS011;7630;50.306;8.566;2023-03-23T05:13:32;3.90;;;2.70;;
15061;SDS011;7630;50.306;8.566;2023-03-23T05:17:33;2.70;;;2.47;;
15061;SDS011;7630;50.306;8.566;2023-03-23T05:21:34;3.17;;;2.57;;
15061;SDS011;7630;50.306;8.566;2023-03-23T05:25:35;3.33;;;3.03;;
15061;SDS011;7630;50.306;8.566;2023-03-23T05:29:39;2.67;;;2.47;;
15061;SDS011;7630;50.306;8.566;2023-03-23T05:33:40;4.60;;;2.57;;
15061;SDS011;7630;50.306;8.566;2023-03-23T05:37:41;3.27;;;2.80;;
15061;SDS011;7630;50.306;8.566;2023-03-23T05:41:42;3.83;;;2.87;;
15061;SDS011;7630;50.306;8.566;2023-03-23T05:45:42;2.73;;;2.40;;
15061;SDS011;7630;50.306;8.566;2023-03-23T05:49:43;2.50;;;2.30;;
15061;SDS011;7630;50.306;8.566;2023-03-23T05:53:44;2.70;;;2.50;;
15061;SDS011;7630;50.306;8.566;2023-03-23T05:57:44;3.00;;;2.80;;
15061;SDS011;7630;50.306;8.566;2023-03-23T06:01:45;2.93;;;2.63;;
15061;SDS011;7630;50.306;8.566;2023-03-23T06:05:46;3.70;;;2.63;;
15061;SDS011;7630;50.306;8.566;2023-03-23T06:09:46;3.07;;;2.00;;
15061;SDS011;7630;50.306;8.566;2023-03-23T06:13:47;2.00;;;1.90;;
15061;SDS011;7630;50.306;8.566;2023-03-23T06:17:48;2.77;;;2.57;;
15061;SDS011;7630;50.306;8.566;2023-03-23T06:21:50;2.67;;;2.43;;
15061;SDS011;7630;50.306;8.566;2023-03-23T06:25:54;2.97;;;2.67;;
15061;SDS011;7630;50.306;8.566;2023-03-23T06:29:57;2.40;;;2.20;;
15061;SDS011;7630;50.306;8.566;2023-03-23T06:33:58;2.50;;;2.30;;
15061;SDS011;7630;50.306;8.566;2023-03-23T06:37:58;2.17;;;2.07;;
15061;SDS011;7630;50.306;8.566;2023-03-23T06:42:01;1.60;;;1.50;;
15061;SDS011;7630;50.306;8.566;2023-03-23T06:46:02;2.83;;;1.90;;
15061;SDS011;7630;50.306;8.566;2023-03-23T06:50:03;3.20;;;1.90;;
15061;SDS011;7630;50.306;8.566;2023-03-23T06:54:04;2.57;;;2.37;;
15061;SDS011;7630;50.306;8.566;2023-03-23T06:58:05;3.17;;;2.33;;
15061;SDS011;7630;50.306;8.566;2023-03-23T07:02:07;2.33;;;2.13;;
15061;SDS011;7630;50.306;8.566;2023-03-23T07:06:09;2.90;;;2.03;;
15061;SDS011;7630;50.306;8.566;2023-03-23T07:10:11;5.20;;;2.17;;
15061;SDS011;7630;50.306;8.566;2023-03-23T07:14:11;2.63;;;2.10;;
15061;SDS011;7630;50.306;8.566;2023-03-23T07:18:12;2.73;;;2.50;;
15061;SDS011;7630;50.306;8.566;2023-03-23T07:22:13;2.30;;;2.07;;
15061;SDS011;7630;50.306;8.566;2023-03-23T07:26:14;2.30;;;2.10;;
15061;SDS011;7630;50.306;8.566;2023-03-23T07:30:14;3.30;;;3.00;;
15061;SDS011;7630;50.306;8.566;2023-03-23T07:34:15;2.47;;;2.03;;
15061;SDS011;7630;50.306;8.566;2023-03-23T07:38:15;2.20;;;2.10;;
15061;SDS011;7630;50.306;8.566;2023-03-23T07:42:16;3.17;;;2.43;;
15061;SDS011;7630;50.306;8.566;2023-03-23T07:46:17;4.70;;;2.33;;
15061;SDS011;7630;50.306;8.566;2023-03-23T07:50:18;2.10;;;1.90;;
15061;SDS011;7630;50.306;8.566;2023-03-23T07:54:21;1.97;;;1.87;;
15061;SDS011;7630;50.306;8.566;2023-03-23T07:58:22;5.73;;;2.47;;
15061;SDS011;7630;50.306;8.566;2023-03-23T08:02:23;2.20;;;2.10;;
15061;SDS011;7630;50.306;8.566;2023-03-23T08:06:24;2.33;;;2.13;;
15061;SDS011;7630;50.306;8.566;2023-03-23T08:10:25;2.60;;;2.03;;
15061;SDS011;7630;50.306;8.566;2023-03-23T08:14:27;2.77;;;2.00;;
15061;SDS011;7630;50.306;8.566;2023-03-23T08:18:29;2.20;;;2.00;;
15061;SDS011;7630;50.306;8.566;2023-03-23T08:22:30;2.33;;;2.17;;
15061;SDS011;7630;50.306;8.566;2023-03-23T08:26:31;3.07;;;2.87;;
15061;SDS011;7630;50.306;8.566;2023-03-23T08:30:32;2.33;;;2.10;;
15061;SDS011;7630;50.306;8.566;2023-03-23T08:34:34;2.30;;;2.10;;
15061;SDS011;7630;50.306;8.566;2023-03-23T08:38:34;2.80;;;2.60;;
15061;SDS011;7630;50.306;8.566;2023-03-23T08:42:37;3.30;;;2.30;;
15061;SDS011;7630;50.306;8.566;2023-03-23T08:46:38;2.50;;;2.37;;
15061;SDS011;7630;50.306;8.566;2023-03-23T08:50:39;2.43;;;2.23;;
15061;SDS011;7630;50.306;8.566;2023-03-23T08:54:41;2.63;;;2.43;;
15061;SDS011;7630;50.306;8.566;2023-03-23T08:58:41;3.10;;;2.80;;
15061;SDS011;7630;50.306;8.566;2023-03-23T09:02:43;2.73;;;2.53;;
15061;SDS011;7630;50.306;8.566;2023-03-23T09:06:47;2.33;;;2.20;;
15061;SDS011;7630;50.306;8.566;2023-03-23T09:10:48;3.03;;;2.83;;
15061;SDS011;7630;50.306;8.566;2023-03-23T09:14:50;4.40;;;2.67;;
15061;SDS011;7630;50.306;8.566;2023-03-23T09:18:51;2.43;;;2.23;;
15061;SDS011;7630;50.306;8.566;2023-03-23T09:22:52;2.57;;;2.37;;
15061;SDS011;7630;50.306;8.566;2023-03-23T09:26:55;2.37;;;2.23;;
15061;SDS011;7630;50.306;8.566;2023-03-23T09:30:58;3.03;;;2.30;;
15061;SDS011;7630;50.306;8.566;2023-03-23T09:34:59;2.60;;;1.90;;
15061;SDS011;7630;50.306;8.566;2023-03-23T09:39:00;3.20;;;2.50;;
15061;SDS011;7630;50.306;8.566;2023-03-23T09:43:14;2.27;;;2.07;;
15061;SDS011;7630;50.306;8.566;2023-03-23T09:51:50;2.37;;;2.17;;
15061;SDS011;7630;50.306;8.566;2023-03-23T09:55:54;2.60;;;2.40;;
15061;SDS011;7630;50.306;8.566;2023-03-23T10:04:27;2.80;;;2.60;;
15061;SDS011;7630;50.306;8.566;2023-03-23T10:08:49;3.47;;;2.50;;
15061;SDS011;7630;50.306;8.566;2023-03-23T10:12:55;3.17;;;2.87;;
15061;SDS011;7630;50.306;8.566;2023-03-23T10:17:06;3.40;;;3.20;;
15061;SDS011;7630;50.306;8.566;2023-03-23T10:21:19;3.10;;;2.60;;
15061;SDS011;7630;50.306;8.566;2023-03-23T10:25:22;4.03;;;2.40;;
15061;SDS011;7630;50.306;8.566;2023-03-23T10:29:28;3.63;;;1.73;;
15061;SDS011;7630;50.306;8.566;2023-03-23T10:37:48;1.70;;;1.60;;
15061;SDS011;7630;50.306;8.566;2023-03-23T10:41:54;2.03;;;1.87;;
15061;SDS011;7630;50.306;8.566;2023-03-23T10:46:10;2.70;;;1.60;;
15061;SDS011;7630;50.306;8.566;2023-03-23T10:50:13;1.67;;;1.37;;
15061;SDS011;7630;50.306;8.566;2023-03-23T10:54:24;1.67;;;1.23;;
15061;SDS011;7630;50.306;8.566;2023-03-23T10:58:31;1.50;;;1.40;;
15061;SDS011;7630;50.306;8.566;2023-03-23T11:02:44;1.57;;;1.47;;
15061;SDS011;7630;50.306;8.566;2023-03-23T11:06:53;2.10;;;1.07;;
15061;SDS011;7630;50.306;8.566;2023-03-23T11:11:08;2.20;;;1.30;;
15061;SDS011;7630;50.306;8.566;2023-03-23T11:15:27;2.80;;;1.47;;
15061;SDS011;7630;50.306;8.566;2023-03-23T11:19:34;1.80;;;1.60;;
15061;SDS011;7630;50.306;8.566;2023-03-23T11:23:37;1.10;;;1.10;;
15061;SDS011;7630;50.306;8.566;2023-03-23T11:27:42;2.47;;;1.10;;
15061;SDS011;7630;50.306;8.566;2023-03-23T11:31:48;1.10;;;0.73;;
15061;SDS011;7630;50.306;8.566;2023-03-23T11:35:52;1.73;;;1.13;;
15061;SDS011;7630;50.306;8.566;2023-03-23T11:40:02;1.70;;;1.30;;
15061;SDS011;7630;50.306;8.566;2023-03-23T11:44:09;0.83;;;0.83;;
15061;SDS011;7630;50.306;8.566;2023-03-23T11:52:42;1.00;;;1.00;;
15061;SDS011;7630;50.306;8.566;2023-03-23T11:56:47;1.10;;;0.90;;
15061;SDS011;7630;50.306;8.566;2023-03-23T12:05:11;0.90;;;0.90;;
15061;SDS011;7630;50.306;8.566;2023-03-23T12:13:50;0.80;;;0.80;;
15061;SDS011;7630;50.306;8.566;2023-03-23T12:17:58;0.97;;;0.90;;
15061;SDS011;7630;50.306;8.566;2023-03-23T12:22:08;1.00;;;1.00;;
15061;SDS011;7630;50.306;8.566;2023-03-23T12:34:58;1.30;;;1.20;;
15061;SDS011;7630;50.306;8.566;2023-03-23T12:43:50;1.30;;;1.20;;
15061;SDS011;7630;50.306;8.566;2023-03-23T12:48:01;1.07;;;1.07;;
15061;SDS011;7630;50.306;8.566;2023-03-23T13:01:01;0.80;;;0.80;;
15061;SDS011;7630;50.306;8.566;2023-03-23T13:05:26;1.20;;;0.97;;
15061;SDS011;7630;50.306;8.566;2023-03-23T13:13:54;1.10;;;1.00;;
15061;SDS011;7630;50.306;8.566;2023-03-23T13:18:02;1.07;;;0.80;;
15061;SDS011;7630;50.306;8.566;2023-03-23T13:22:16;0.80;;;0.80;;
15061;SDS011;7630;50.306;8.566;2023-03-23T13:26:22;0.80;;;0.80;;
15061;SDS011;7630;50.306;8.566;2023-03-23T13:30:23;1.17;;;0.97;;
15061;SDS011;7630;50.306;8.566;2023-03-23T13:34:25;1.47;;;0.90;;
15061;SDS011;7630;50.306;8.566;2023-03-23T13:38:28;0.80;;;0.80;;
15061;SDS011;7630;50.306;8.566;2023-03-23T13:42:29;2.03;;;1.20;;
15061;SDS011;7630;50.306;8.566;2023-03-23T13:46:32;1.00;;;1.00;;
15061;SDS011;7630;50.306;8.566;2023-03-23T13:50:43;0.73;;;0.73;;
15061;SDS011;7630;50.306;8.566;2023-03-23T13:55:08;1.53;;;1.43;;
15061;SDS011;7630;50.306;8.566;2023-03-23T13:59:28;1.13;;;0.80;;
15061;SDS011;7630;50.306;8.566;2023-03-23T14:03:41;1.00;;;1.00;;
15061;SDS011;7630;50.306;8.566;2023-03-23T14:07:52;0.70;;;0.70;;
15061;SDS011;7630;50.306;8.566;2023-03-23T14:11:56;0.70;;;0.70;;
15061;SDS011;7630;50.306;8.566;2023-03-23T14:16:01;1.13;;;0.93;;
15061;SDS011;7630;50.306;8.566;2023-03-23T14:20:04;0.90;;;0.90;;
15061;SDS011;7630;50.306;8.566;2023-03-23T14:24:11;0.90;;;0.90;;
15061;SDS011;7630;50.306;8.566;2023-03-23T14:28:18;0.50;;;0.50;;
15061;SDS011;7630;50.306;8.566;2023-03-23T14:32:21;0.80;;;0.80;;
15061;SDS011;7630;50.306;8.566;2023-03-23T14:36:26;3.40;;;1.03;;
15061;SDS011;7630;50.306;8.566;2023-03-23T14:40:28;1.37;;;1.07;;
15061;SDS011;7630;50.306;8.566;2023-03-23T14:44:31;2.00;;;1.10;;
15061;SDS011;7630;50.306;8.566;2023-03-23T14:48:34;1.40;;;1.00;;
15061;SDS011;7630;50.306;8.566;2023-03-23T14:52:36;2.17;;;1.40;;
15061;SDS011;7630;50.306;8.566;2023-03-23T14:56:38;2.10;;;1.13;;
15061;SDS011;7630;50.306;8.566;2023-03-23T15:00:41;1.37;;;1.13;;
15061;SDS011;7630;50.306;8.566;2023-03-23T15:04:45;1.50;;;1.40;;
15061;SDS011;7630;50.306;8.566;2023-03-23T15:08:47;3.50;;;1.10;;
15061;SDS011;7630;50.306;8.566;2023-03-23T15:12:51;1.87;;;1.57;;
15061;SDS011;7630;50.306;8.566;2023-03-23T15:16:55;1.97;;;1.80;;
15061;SDS011;7630;50.306;8.566;2023-03-23T15:20:58;1.83;;;1.73;;
15061;SDS011;7630;50.306;8.566;2023-03-23T15:29:19;2.93;;;1.97;;
15061;SDS011;7630;50.306;8.566;2023-03-23T15:33:23;1.80;;;1.70;;
15061;SDS011;7630;50.306;8.566;2023-03-23T15:37:29;3.13;;;1.97;;
15061;SDS011;7630;50.306;8.566;2023-03-23T15:41:31;2.23;;;1.53;;
15061;SDS011;7630;50.306;8.566;2023-03-23T15:45:33;1.87;;;1.77;;
15061;SDS011;7630;50.306;8.566;2023-03-23T15:49:34;1.73;;;1.53;;
15061;SDS011;7630;50.306;8.566;2023-03-23T15:53:36;3.27;;;1.87;;
15061;SDS011;7630;50.306;8.566;2023-03-23T15:57:40;2.20;;;1.80;;
15061;SDS011;7630;50.306;8.566;2023-03-23T16:01:41;4.00;;;2.43;;
15061;SDS011;7630;50.306;8.566;2023-03-23T16:05:43;1.87;;;1.60;;
15061;SDS011;7630;50.306;8.566;2023-03-23T16:09:45;2.00;;;1.80;;
15061;SDS011;7630;50.306;8.566;2023-03-23T16:13:46;2.60;;;1.67;;
15061;SDS011;7630;50.306;8.566;2023-03-23T16:17:47;3.37;;;1.73;;
15061;SDS011;7630;50.306;8.566;2023-03-23T16:21:49;2.00;;;1.90;;
15061;SDS011;7630;50.306;8.566;2023-03-23T16:25:50;2.77;;;1.80;;
15061;SDS011;7630;50.306;8.566;2023-03-23T16:29:51;2.27;;;2.17;;
15061;SDS011;7630;50.306;8.566;2023-03-23T16:33:54;2.00;;;1.80;;
15061;SDS011;7630;50.306;8.566;2023-03-23T16:37:55;2.13;;;1.93;;
15061;SDS011;7630;50.306;8.566;2023-03-23T16:41:59;2.23;;;2.10;;
15061;SDS011;7630;50.306;8.566;2023-03-23T16:46:00;3.33;;;1.90;;
15061;SDS011;7630;50.306;8.566;2023-03-23T16:50:02;2.00;;;1.90;;
15061;SDS011;7630;50.306;8.566;2023-03-23T16:54:06;2.57;;;2.37;;
15061;SDS011;7630;50.306;8.566;2023-03-23T16:58:07;2.30;;;2.10;;
15061;SDS011;7630;50.306;8.566;2023-03-23T17:02:10;2.13;;;1.83;;
15061;SDS011;7630;50.306;8.566;2023-03-23T17:06:12;2.27;;;2.00;;
15061;SDS011;7630;50.306;8.566;2023-03-23T17:10:13;3.87;;;2.00;;
15061;SDS011;7630;50.306;8.566;2023-03-23T17:14:16;4.40;;;2.20;;
15061;SDS011;7630;50.306;8.566;2023-03-23T17:18:17;2.50;;;2.30;;
15061;SDS011;7630;50.306;8.566;2023-03-23T17:22:18;2.60;;;2.27;;
15061;SDS011;7630;50.306;8.566;2023-03-23T17:26:19;2.67;;;2.03;;
15061;SDS011;7630;50.306;8.566;2023-03-23T17:30:20;3.27;;;2.00;;
15061;SDS011;7630;50.306;8.566;2023-03-23T17:34:21;4.63;;;2.10;;
15061;SDS011;7630;50.306;8.566;2023-03-23T17:38:23;3.77;;;2.27;;
15061;SDS011;7630;50.306;8.566;2023-03-23T17:42:25;2.90;;;2.63;;
15061;SDS011;7630;50.306;8.566;2023-03-23T17:46:26;1.60;;;1.50;;
15061;SDS011;7630;50.306;8.566;2023-03-23T17:50:27;3.00;;;2.80;;
15061;SDS011;7630;50.306;8.566;2023-03-23T17:54:29;2.87;;;2.50;;
15061;SDS011;7630;50.306;8.566;2023-03-23T17:58:30;2.90;;;2.70;;
15061;SDS011;7630;50.306;8.566;2023-03-23T18:02:32;4.60;;;2.43;;
15061;SDS011;7630;50.306;8.566;2023-03-23T18:06:33;3.57;;;2.67;;
15061;SDS011;7630;50.306;8.566;2023-03-23T18:10:35;3.90;;;3.50;;
15061;SDS011;7630;50.306;8.566;2023-03-23T18:14:38;4.50;;;3.00;;
15061;SDS011;7630;50.306;8.566;2023-03-23T18:18:39;3.17;;;2.97;;
15061;SDS011;7630;50.306;8.566;2023-03-23T18:22:41;2.70;;;2.37;;
15061;SDS011;7630;50.306;8.566;2023-03-23T18:26:42;2.73;;;2.53;;
15061;SDS011;7630;50.306;8.566;2023-03-23T18:30:43;3.77;;;2.87;;
15061;SDS011;7630;50.306;8.566;2023-03-23T18:34:46;4.10;;;2.83;;
15061;SDS011;7630;50.306;8.566;2023-03-23T18:38:48;3.07;;;2.73;;
15061;SDS011;7630;50.306;8.566;2023-03-23T18:42:50;3.13;;;2.83;;
15061;SDS011;7630;50.306;8.566;2023-03-23T18:46:51;4.30;;;3.03;;
15061;SDS011;7630;50.306;8.566;2023-03-23T18:50:54;3.30;;;3.00;;
15061;SDS011;7630;50.306;8.566;2023-03-23T18:54:57;2.67;;;2.47;;
15061;SDS011;7630;50.306;8.566;2023-03-23T18:58:59;3.23;;;2.83;;
15061;SDS011;7630;50.306;8.566;2023-03-23T19:03:00;2.67;;;2.47;;
15061;SDS011;7630;50.306;8.566;2023-03-23T19:07:02;2.77;;;2.40;;
15061;SDS011;7630;50.306;8.566;2023-03-23T19:11:03;3.30;;;3.00;;
15061;SDS011;7630;50.306;8.566;2023-03-23T19:15:05;3.20;;;2.90;;
15061;SDS011;7630;50.306;8.566;2023-03-23T19:19:07;4.58;;;3.92;;
15061;SDS011;7630;50.306;8.566;2023-03-23T19:23:08;3.23;;;2.90;;
15061;SDS011;7630;50.306;8.566;2023-03-23T19:27:09;3.07;;;2.83;;
15061;SDS011;7630;50.306;8.566;2023-03-23T19:31:11;4.23;;;2.90;;
15061;SDS011;7630;50.306;8.566;2023-03-23T19:35:14;3.80;;;3.33;;
15061;SDS011;7630;50.306;8.566;2023-03-23T19:39:16;3.80;;;3.50;;
15061;SDS011;7630;50.306;8.566;2023-03-23T19:43:17;3.10;;;2.80;;
15061;SDS011;7630;50.306;8.566;2023-03-23T19:47:19;3.77;;;3.47;;
15061;SDS011;7630;50.306;8.566;2023-03-23T19:51:20;3.43;;;3.23;;
15061;SDS011;7630;50.306;8.566;2023-03-23T19:55:22;7.80;;;3.20;;
15061;SDS011;7630;50.306;8.566;2023-03-23T19:59:24;3.73;;;3.43;;
15061;SDS011;7630;50.306;8.566;2023-03-23T20:03:26;4.70;;;3.77;;
15061;SDS011;7630;50.306;8.566;2023-03-23T20:07:27;5.13;;;4.17;;
15061;SDS011;7630;50.306;8.566;2023-03-23T20:11:29;3.90;;;3.57;;
15061;SDS011;7630;50.306;8.566;2023-03-23T20:15:30;4.50;;;4.07;;
15061;SDS011;7630;50.306;8.566;2023-03-23T20:19:33;4.57;;;3.13;;
15061;SDS011;7630;50.306;8.566;2023-03-23T20:23:36;5.13;;;4.20;;
15061;SDS011;7630;50.306;8.566;2023-03-23T20:27:39;4.43;;;4.03;;
15061;SDS011;7630;50.306;8.566;2023-03-23T20:31:41;4.17;;;3.83;;
15061;SDS011;7630;50.306;8.566;2023-03-23T20:35:42;4.07;;;3.77;;
15061;SDS011;7630;50.306;8.566;2023-03-23T20:39:44;4.73;;;4.10;;
15061;SDS011;7630;50.306;8.566;2023-03-23T20:43:46;7.57;;;4.63;;
15061;SDS011;7630;50.306;8.566;2023-03-23T20:47:47;4.73;;;4.33;;
15061;SDS011;7630;50.306;8.566;2023-03-23T20:51:48;4.20;;;3.80;;
15061;SDS011;7630;50.306;8.566;2023-03-23T20:55:50;6.27;;;3.90;;
15061;SDS011;7630;50.306;8.566;2023-03-23T20:59:51;6.53;;;4.70;;
15061;SDS011;7630;50.306;8.566;2023-03-23T21:03:53;4.73;;;4.33;;
15061;SDS011;7630;50.306;8.566;2023-03-23T21:07:56;4.77;;;4.37;;
15061;SDS011;7630;50.306;8.566;2023-03-23T21:11:57;4.70;;;4.30;;
15061;SDS011;7630;50.306;8.566;2023-03-23T21:15:59;6.10;;;5.40;;
15061;SDS011;7630;50.306;8.566;2023-03-23T21:20:02;4.47;;;4.17;;
15061;SDS011;7630;50.306;8.566;2023-03-23T21:24:04;5.83;;;5.33;;
15061;SDS011;7630;50.306;8.566;2023-03-23T21:28:06;5.00;;;4.20;;
15061;SDS011;7630;50.306;8.566;2023-03-23T21:32:08;5.73;;;5.23;;
15061;SDS011;7630;50.306;8.566;2023-03-23T21:36:09;6.43;;;5.93;;
15061;SDS011;7630;50.306;8.566;2023-03-23T21:40:11;5.27;;;4.87;;
15061;SDS011;7630;50.306;8.566;2023-03-23T21:44:14;4.93;;;4.53;;
15061;SDS011;7630;50.306;8.566;2023-03-23T21:48:17;5.07;;;4.27;;
15061;SDS011;7630;50.306;8.566;2023-03-23T21:52:20;4.97;;;4.57;;
15061;SDS011;7630;50.306;8.566;2023-03-23T21:56:23;6.07;;;4.63;;
15061;SDS011;7630;50.306;8.566;2023-03-23T22:00:25;5.50;;;5.00;;
15061;SDS011;7630;50.306;8.566;2023-03-23T22:04:27;6.97;;;5.00;;
15061;SDS011;7630;50.306;8.566;2023-03-23T22:08:29;5.73;;;5.23;;
15061;SDS011;7630;50.306;8.566;2023-03-23T22:12:31;6.23;;;5.43;;
15061;SDS011;7630;50.306;8.566;2023-03-23T22:16:32;7.40;;;6.70;;
15061;SDS011;7630;50.306;8.566;2023-03-23T22:20:33;8.67;;;6.77;;
15061;SDS011;7630;50.306;8.566;2023-03-23T22:24:35;5.73;;;5.23;;
15061;SDS011;7630;50.306;8.566;2023-03-23T22:28:37;5.63;;;4.77;;
15061;SDS011;7630;50.306;8.566;2023-03-23T22:32:39;5.90;;;5.10;;
15061;SDS011;7630;50.306;8.566;2023-03-23T22:36:40;6.27;;;5.30;;
15061;SDS011;7630;50.306;8.566;2023-03-23T22:40:41;5.90;;;5.40;;
15061;SDS011;7630;50.306;8.566;2023-03-23T22:44:43;5.93;;;5.40;;
15061;SDS011;7630;50.306;8.566;2023-03-23T22:48:44;6.17;;;5.57;;
15061;SDS011;7630;50.306;8.566;2023-03-23T22:52:46;4.33;;;3.90;;
15061;SDS011;7630;50.306;8.566;2023-03-23T22:56:47;4.67;;;4.23;;
15061;SDS011;7630;50.306;8.566;2023-03-23T23:00:50;4.77;;;4.37;;
15061;SDS011;7630;50.306;8.566;2023-03-23T23:04:53;5.80;;;4.60;;
15061;SDS011;7630;50.306;8.566;2023-03-23T23:08:54;6.13;;;5.43;;
15061;SDS011;7630;50.306;8.566;2023-03-23T23:12:56;7.13;;;5.03;;
15061;SDS011;7630;50.306;8.566;2023-03-23T23:16:57;5.47;;;4.97;;
15061;SDS011;7630;50.306;8.566;2023-03-23T23:20:59;6.67;;;5.60;;
15061;SDS011;7630;50.306;8.566;2023-03-23T23:25:01;6.70;;;5.50;;
15061;SDS011;7630;50.306;8.566;2023-03-23T23:29:02;6.37;;;5.10;;
15061;SDS011;7630;50.306;8.566;2023-03-23T23:33:04;6.33;;;5.73;;
15061;SDS011;7630;50.306;8.566;2023-03-23T23:37:06;8.60;;;5.47;;
15061;SDS011;7630;50.306;8.566;2023-03-23T23:41:08;6.63;;;6.03;;
15061;SDS011;7630;50.306;8.566;2023-03-23T23:45:10;7.77;;;6.93;;
15061;SDS011;7630;50.306;8.566;2023-03-23T23:49:12;7.40;;;6.70;;
15061;SDS011;7630;50.306;8.566;2023-03-23T23:53:14;9.70;;;6.93;;
15061;SDS011;7630;50.306;8.566;2023-03-23T23:57:17;7.93;;;7.27;;
